This is the latest recevied weather packets stored in our database for station/object CT1ETE-13. If no packets are shown the sender has not sent any weather packets the latest 10 day(s).
| Time | Temp. | Humidity | Pressure | Rain* | Wind** | Luminosity | Snow |
|---|---|---|---|---|---|---|---|
| 1787944165 | 19.44° C | 75% | 1021.9 hPa | 0 mm | - | 1426 W/m² | - |
| 1787943265 | 20° C | 73% | 1021.8 hPa | 0 mm | - | 1412 W/m² | - |
| 1787942359 | 20.56° C | 72% | 1021.7 hPa | 0 mm | - | 1404 W/m² | - |
| 1787941460 | 20.56° C | 70% | 1021.8 hPa | 0 mm | - | 1399 W/m² | - |
| 1787940620 | 21.11° C | 71% | 1021.8 hPa | 0 mm | - | 1396 W/m² | - |
| 1787939659 | 21.11° C | 70% | 1021.8 hPa | 0 mm | - | 1392 W/m² | - |
| 1787938818 | 21.11° C | 69% | 1021.8 hPa | 0 mm | - | 1392 W/m² | - |
| 1787937859 | 21.11° C | 70% | 1021.8 hPa | 0 mm | - | 1394 W/m² | - |
| 1787936958 | 21.11° C | 73% | 1021.9 hPa | 0 mm | - | 1396 W/m² | - |
| 1787936058 | 21.11° C | 72% | 1021.9 hPa | 0 mm | - | 1394 W/m² | - |
| 1787935157 | 20.56° C | 76% | 1021.9 hPa | 0 mm | - | 1406 W/m² | - |
| 1787934256 | 21.11° C | 73% | 1021.9 hPa | 0 mm | - | 1399 W/m² | - |
| 1787933356 | 21.11° C | 76% | 1021.9 hPa | 0 mm | - | 1403 W/m² | - |
| 1787932456 | 20.56° C | 77% | 1021.8 hPa | 0 mm | - | 1404 W/m² | - |
| 1787931556 | 20.56° C | 75% | 1021.9 hPa | 0 mm | - | 1404 W/m² | - |
| 1787930657 | 21.11° C | 75% | 1021.9 hPa | 0 mm | - | 1397 W/m² | - |
| 1787929755 | 21.11° C | 74% | 1021.9 hPa | 0 mm | - | 1387 W/m² | - |
| 1787928851 | 21.67° C | 74% | 1021.8 hPa | 0 mm | - | 1375 W/m² | - |
| 1787927950 | 21.11° C | 76% | 1021.9 hPa | 0 mm | - | 1385 W/m² | - |
| 1787927108 | 21.11° C | 73% | 1021.9 hPa | 0 mm | - | 1385 W/m² | - |
| 1787926148 | 21.67° C | 72% | 1021.8 hPa | 0 mm | - | 1378 W/m² | - |
| 1787925248 | 21.67° C | 72% | 1021.9 hPa | 0 mm | - | 1375 W/m² | - |
| 1787924356 | 21.11° C | 76% | 1021.9 hPa | 0 mm | - | 1385 W/m² | - |
| 1787923446 | 20.56° C | 77% | 1022 hPa | 0 mm | - | 1390 W/m² | - |
| 1787922546 | 20.56° C | 78% | 1021.9 hPa | 0 mm | - | 1394 W/m² | - |
* Rain latest hour (hover to see other rain measurements)
** Current wind speed in m/s (hover to see current wind gust speed)